Hauptseite
METAR-TAF:

METAR-TAF

Flughäfen :

Florianópolis, Santa Catarina, Brasilien

Flughafen Florianópolis

Breite: 27-40S, Länge: 048-33W, Höhe: 5 m

Beobachtung

Neuester Wetterbericht von vor 12 Minuten, um 18:00 UTC
Windstille
Temperatur 30°C
Luftfeuchtigkeit 49%
Luftdruck 1015 hPa
Sichtweite 10 km oder mehr
Leicht bewölkt in der Höhe von 3500 ft

METAR: SBFL 201800Z 00000KT 9999 FEW035 30/18 Q1015

Zeit: 15:12 (18:12 UTC)

Prognose

Neuester Wetterbericht von vor 2 Stunden und 42 Minuten, um 15:30 UTC
Gültige Prognose vom 20 um 18 UTC bis 21 um 18 UTC
Wind 8 kt aus Nord/Nordost
Sichtweite 10 km oder mehr
keine Wolken unter 1500 m und keine Kumulonimbus oder Gewitterwolken

TAF: SBFL 201530Z 2018/2118 02008KT 9999 FEW035 TX31/2018Z TN18/2108Z CAVOK RMK PEB

Wetterbeobachtungen und Prognosen von mehr als 4000 Flughäfen (METAR und TAF Bericht).

Die verfügbaren Stationen werden durch gelbe und rote Markierungen auf der Karte dargestellt.

Führen Sie die Maus auf sie, um den Namen der Station zu sehen.

Darauf klicken, um die Beobachtung von Wetterbeobachtungen und Prognosen zu sehen.

Um die Karte zu ändern : klicken Sie auf den grünen Tasten mit einem schwarzen Kreuz Zum Vergrößern, auf den grünen Button mit einem Gedankenstrich zu verkleinern, oder auf die grünen Pfeile für benachbarte Karten.


METAR-TAF: